Time;durP1;ratioP1;P1;durP2;ratioP2;P2;SDS_P1;SDS_P2;PMS_P1;PMS_P2;Temp;Humidity;BMP_temperature;BMP_pressure;BME280_temperature;BME280_humidity;BME280_pressure;Samples;Min_cycle;Max_cycle;Signal;HPM_P1;HPM_P2
2022/12/18 00:00:43;;;;;;;60.33;28.53;;;;;;;-3.67;50.19;98521.25;5050601;28;20545;-70
2022/12/18 00:03:09;;;;;;;60.70;28.13;;;;;;;-3.61;49.63;98520.28;5053617;28;20183;-69
2022/12/18 00:05:34;;;;;;;66.37;29.50;;;;;;;-3.62;49.61;98519.41;5049380;28;20491;-70
2022/12/18 00:08:00;;;;;;;59.37;26.97;;;;;;;-3.57;49.64;98527.88;5049474;28;20234;-70
2022/12/18 00:10:27;;;;;;;61.60;29.17;;;;;;;-3.60;49.42;98521.97;5054477;28;20429;-72
2022/12/18 00:12:52;;;;;;;57.93;27.93;;;;;;;-3.58;49.57;98515.91;5049576;28;20183;-71
2022/12/18 00:15:18;;;;;;;64.27;30.50;;;;;;;-3.62;50.24;98524.53;5062641;28;20938;-72
2022/12/18 00:17:43;;;;;;;61.33;29.30;;;;;;;-3.70;50.53;98521.31;5050722;28;20208;-71
2022/12/18 00:20:09;;;;;;;68.63;29.27;;;;;;;-3.52;50.51;98526.91;5060390;28;20669;-70
2022/12/18 00:22:34;;;;;;;67.33;31.53;;;;;;;-3.43;53.08;98521.59;5061721;28;20551;-70
2022/12/18 00:25:00;;;;;;;67.20;30.17;;;;;;;-3.35;52.91;98519.72;5062033;28;20276;-71
2022/12/18 00:27:25;;;;;;;65.27;30.93;;;;;;;-3.35;52.79;98517.16;5060016;28;20708;-71
2022/12/18 00:29:51;;;;;;;71.80;32.50;;;;;;;-3.20;53.11;98510.81;5064194;28;20211;-70
2022/12/18 00:32:16;;;;;;;71.33;32.33;;;;;;;-3.18;53.35;98511.63;5055296;28;20272;-70
2022/12/18 00:34:42;;;;;;;72.50;32.00;;;;;;;-3.11;53.08;98515.78;5059309;28;20178;-71
2022/12/18 00:37:07;;;;;;;60.40;29.70;;;;;;;-3.15;52.44;98529.53;5053402;28;20807;-70
2022/12/18 00:39:33;;;;;;;72.10;31.20;;;;;;;-3.09;51.75;98523.41;5057148;28;20689;-73
2022/12/18 00:44:42;;;;;;;69.80;30.93;;;;;;;-3.25;51.05;98526.31;5051612;28;20186;-70
2022/12/18 00:47:07;;;;;;;67.93;31.10;;;;;;;-3.18;50.41;98528.75;5062741;28;20873;-72
2022/12/18 00:49:33;;;;;;;64.80;29.40;;;;;;;-3.22;51.26;98534.81;5055670;28;20177;-73
2022/12/18 00:51:58;;;;;;;61.03;28.97;;;;;;;-3.19;51.63;98529.63;5057604;28;20190;-70
2022/12/18 00:54:24;;;;;;;66.47;29.70;;;;;;;-3.18;53.46;98531.31;5062450;28;20751;-70
2022/12/18 00:56:49;;;;;;;60.87;29.73;;;;;;;-3.29;53.18;98532.41;5056960;28;20224;-70
2022/12/18 00:59:15;;;;;;;63.13;28.83;;;;;;;-3.34;52.23;98539.34;5059037;28;20179;-71
2022/12/18 01:01:41;;;;;;;64.43;29.97;;;;;;;-3.21;53.40;98539.09;5059374;28;20203;-72
2022/12/18 01:04:06;;;;;;;61.57;31.00;;;;;;;-3.24;53.57;98542.56;5057223;28;20795;-73
2022/12/18 01:06:32;;;;;;;62.80;28.77;;;;;;;-3.17;53.25;98536.41;5067044;28;20186;-71
2022/12/18 01:08:57;;;;;;;59.67;29.20;;;;;;;-3.40;53.30;98531.78;5061970;28;20904;-72
2022/12/18 01:11:23;;;;;;;59.00;28.73;;;;;;;-3.44;54.29;98533.56;5066919;28;20204;-71
2022/12/18 01:13:48;;;;;;;62.90;31.10;;;;;;;-3.37;54.59;98534.28;5060835;28;20245;-74
2022/12/18 01:16:15;;;;;;;68.57;30.70;;;;;;;-3.22;54.80;98528.00;5061416;28;20371;-69
2022/12/18 01:18:41;;;;;;;61.77;28.93;;;;;;;-3.25;54.15;98526.31;5055712;28;20262;-71
2022/12/18 01:21:08;;;;;;;65.57;28.83;;;;;;;-3.26;53.44;98522.06;5056679;28;20460;-73
2022/12/18 01:23:34;;;;;;;61.23;29.90;;;;;;;-3.22;53.69;98532.25;5059180;28;20431;-70
2022/12/18 01:26:10;;;;;;;59.67;28.10;;;;;;;-3.24;53.54;98540.84;5057313;28;20433;-72
2022/12/18 01:28:36;;;;;;;65.63;28.97;;;;;;;-3.20;53.04;98541.59;5052438;28;20205;-71
2022/12/18 01:31:16;;;;;;;62.50;28.70;;;;;;;-3.28;53.39;98538.38;5056548;28;20409;-72
2022/12/18 01:33:42;;;;;;;63.00;28.27;;;;;;;-3.40;52.91;98534.34;5049633;28;20924;-71
2022/12/18 01:36:11;;;;;;;55.67;28.43;;;;;;;-3.60;52.84;98527.09;5043619;28;20443;-72
2022/12/18 01:38:37;;;;;;;60.40;29.60;;;;;;;-3.99;54.03;98543.19;5063577;28;20240;-70
2022/12/18 01:41:02;;;;;;;65.23;30.00;;;;;;;-4.19;54.14;98549.53;5062530;28;20459;-71
2022/12/18 01:43:44;;;;;;;61.60;28.93;;;;;;;-4.13;53.62;98543.47;5060894;28;20612;-71
2022/12/18 01:46:10;;;;;;;55.90;28.20;;;;;;;-4.21;53.10;98548.72;5057902;28;20804;-71
2022/12/18 01:48:35;;;;;;;67.10;28.47;;;;;;;-4.17;53.55;98552.06;5051801;28;20441;-72
2022/12/18 01:51:01;;;;;;;60.87;28.97;;;;;;;-3.99;52.72;98550.88;5059048;28;20962;-72
2022/12/18 01:53:26;;;;;;;64.13;27.70;;;;;;;-3.89;52.23;98547.28;5058891;28;20195;-72
2022/12/18 01:55:57;;;;;;;57.70;27.70;;;;;;;-3.83;51.22;98542.91;5054975;28;20524;-70
2022/12/18 01:58:51;;;;;;;57.60;26.13;;;;;;;-4.04;52.03;98547.59;5054210;28;20212;-72
2022/12/18 02:01:17;;;;;;;52.10;24.40;;;;;;;-4.27;52.09;98546.25;5046999;28;20468;-70
2022/12/18 02:03:44;;;;;;;61.17;25.30;;;;;;;-4.17;52.36;98542.69;5057464;28;20850;-70
2022/12/18 02:06:17;;;;;;;55.70;25.57;;;;;;;-4.03;52.15;98531.31;5055181;28;20448;-73
2022/12/18 02:09:08;;;;;;;56.10;25.13;;;;;;;-4.04;51.21;98537.34;5055586;28;20447;-71
2022/12/18 02:11:53;;;;;;;56.53;26.00;;;;;;;-3.81;51.83;98543.72;5045552;28;20422;-72
2022/12/18 02:14:27;;;;;;;60.63;25.33;;;;;;;-3.83;50.96;98540.34;5067922;28;20914;-71
2022/12/18 02:17:05;;;;;;;54.50;25.00;;;;;;;-3.78;50.85;98543.69;5056468;28;20466;-72
2022/12/18 02:19:58;;;;;;;48.33;23.80;;;;;;;-3.75;51.26;98544.47;5057182;28;20680;-72
2022/12/18 02:23:00;;;;;;;47.53;22.97;;;;;;;-3.75;51.07;98552.16;5067460;28;21051;-70
2022/12/18 02:25:51;;;;;;;47.27;23.13;;;;;;;-3.74;51.19;98542.72;5062291;28;20919;-72
2022/12/18 02:28:19;;;;;;;50.53;22.63;;;;;;;-3.80;50.95;98541.13;5038019;28;20449;-70
2022/12/18 02:30:47;;;;;;;51.70;24.70;;;;;;;-3.78;51.51;98539.38;5017329;28;20508;-71
2022/12/18 02:33:14;;;;;;;58.50;25.37;;;;;;;-3.66;50.78;98542.56;5052492;28;20524;-71
2022/12/18 02:35:40;;;;;;;55.13;25.00;;;;;;;-3.58;50.86;98549.25;5054973;28;20534;-73
2022/12/18 02:38:06;;;;;;;50.47;23.23;;;;;;;-3.58;50.85;98556.94;5052507;28;20498;-72
2022/12/18 02:40:32;;;;;;;46.87;24.70;;;;;;;-3.61;50.20;98556.16;5054933;28;20421;-72
2022/12/18 02:43:12;;;;;;;53.33;24.60;;;;;;;-3.68;50.42;98560.56;5059036;28;20640;-75
2022/12/18 02:45:50;;;;;;;45.30;24.17;;;;;;;-3.71;50.19;98558.88;5055021;28;20516;-72
2022/12/18 02:48:18;;;;;;;48.20;23.73;;;;;;;-3.71;49.81;98556.31;5051044;28;20561;-73
2022/12/18 02:50:56;;;;;;;50.80;23.53;;;;;;;-3.77;50.42;98551.31;5055363;28;20792;-72
2022/12/18 02:53:33;;;;;;;47.23;24.03;;;;;;;-3.70;50.27;98550.31;5042412;28;20429;-72
2022/12/18 02:56:11;;;;;;;48.87;23.53;;;;;;;-3.70;50.32;98562.31;5050201;28;20428;-73
2022/12/18 02:58:55;;;;;;;50.87;24.93;;;;;;;-3.70;50.21;98562.31;5049116;28;20460;-72
2022/12/18 03:01:36;;;;;;;46.10;22.70;;;;;;;-3.80;50.11;98561.63;5053164;28;20456;-73
2022/12/18 03:04:07;;;;;;;47.90;23.47;;;;;;;-3.86;50.48;98554.91;5050854;28;20491;-72
2022/12/18 03:06:37;;;;;;;45.87;22.93;;;;;;;-3.83;50.49;98542.91;5048025;28;20471;-71
2022/12/18 03:09:08;;;;;;;50.53;24.43;;;;;;;-3.81;49.72;98551.41;5055775;28;20517;-71
2022/12/18 03:14:24;;;;;;;46.17;22.20;;;;;;;-3.80;50.64;98556.50;5056326;28;20424;-72
2022/12/18 03:16:52;;;;;;;46.60;22.27;;;;;;;-3.81;49.76;98562.50;5050983;28;20454;-71
2022/12/18 03:19:21;;;;;;;52.77;24.73;;;;;;;-3.82;50.08;98570.22;5051096;28;20928;-71
2022/12/18 03:21:50;;;;;;;47.03;22.27;;;;;;;-3.82;50.43;98577.91;5055299;28;20467;-72
2022/12/18 03:24:17;;;;;;;47.10;22.73;;;;;;;-3.85;49.66;98581.38;5055417;28;20480;-71
2022/12/18 03:26:46;;;;;;;45.43;22.10;;;;;;;-3.82;49.85;98577.91;5050123;28;20792;-72
2022/12/18 03:29:24;;;;;;;46.03;20.70;;;;;;;-4.01;49.49;98576.53;5050609;28;20498;-71
2022/12/18 03:31:54;;;;;;;47.73;22.67;;;;;;;-3.98;50.01;98573.06;5050434;28;20433;-70
2022/12/18 03:34:23;;;;;;;48.47;22.10;;;;;;;-4.10;50.35;98573.28;5053200;28;20786;-71
2022/12/18 03:36:49;;;;;;;43.70;21.93;;;;;;;-4.05;50.65;98571.50;5052474;28;20433;-71
2022/12/18 03:39:14;;;;;;;45.53;22.03;;;;;;;-4.07;50.21;98568.94;5043550;28;20447;-73
2022/12/18 03:41:44;;;;;;;46.17;21.87;;;;;;;-3.97;51.06;98569.63;5059439;28;20198;-71
2022/12/18 03:44:12;;;;;;;47.77;22.27;;;;;;;-3.93;50.31;98572.97;5057292;28;20632;-74
2022/12/18 03:46:55;;;;;;;47.80;21.97;;;;;;;-3.93;50.67;98571.28;5056460;28;20512;-73
2022/12/18 03:50:03;;;;;;;44.40;21.70;;;;;;;-3.89;49.93;98564.38;5048363;28;20421;-70
2022/12/18 03:52:59;;;;;;;43.60;21.50;;;;;;;-3.83;49.76;98568.53;4989578;28;20441;-70
2022/12/18 03:55:25;;;;;;;48.97;21.57;;;;;;;-3.71;50.02;98576.00;4976508;28;20466;-72
2022/12/18 03:57:51;;;;;;;41.43;20.07;;;;;;;-3.79;50.40;98567.63;5030112;28;20464;-71
2022/12/18 04:00:18;;;;;;;46.83;20.43;;;;;;;-3.92;50.37;98565.28;5053639;28;20456;-71
2022/12/18 04:02:54;;;;;;;43.67;20.97;;;;;;;-4.28;49.91;98566.78;5052028;28;20482;-71
2022/12/18 04:05:20;;;;;;;51.23;23.17;;;;;;;-4.24;50.59;98566.69;5052047;28;20433;-71
2022/12/18 04:07:47;;;;;;;39.70;20.70;;;;;;;-4.10;50.56;98563.03;5052167;28;20439;-71
2022/12/18 04:10:14;;;;;;;45.40;21.50;;;;;;;-4.26;50.33;98567.59;5052929;28;20448;-72
2022/12/18 04:12:40;;;;;;;46.27;22.03;;;;;;;-4.56;51.04;98557.84;5052471;28;20417;-71
2022/12/18 04:15:06;;;;;;;44.67;21.97;;;;;;;-4.31;50.05;98560.00;5052692;28;20456;-73
2022/12/18 04:17:31;;;;;;;43.10;20.70;;;;;;;-4.19;50.00;98564.91;5052066;28;20555;-73
2022/12/18 04:19:57;;;;;;;44.97;21.80;;;;;;;-4.06;49.90;98574.94;5054467;28;20441;-72
2022/12/18 04:22:22;;;;;;;43.97;21.20;;;;;;;-4.14;49.61;98569.94;5051907;28;20254;-71
2022/12/18 04:24:47;;;;;;;44.10;20.80;;;;;;;-4.21;50.51;98566.66;5048066;28;20192;-72
2022/12/18 04:27:13;;;;;;;39.00;20.17;;;;;;;-4.19;50.93;98569.16;5045643;28;20214;-71
2022/12/18 04:29:39;;;;;;;46.40;20.93;;;;;;;-4.21;50.82;98566.66;5066426;28;20180;-71
2022/12/18 04:32:04;;;;;;;43.50;20.93;;;;;;;-4.15;50.45;98578.50;5070023;28;20198;-73
2022/12/18 04:34:30;;;;;;;42.87;20.03;;;;;;;-4.08;50.79;98589.47;5057699;28;20193;-71
2022/12/18 04:36:56;;;;;;;39.93;21.40;;;;;;;-4.09;50.00;98586.06;5067997;28;20192;-70
2022/12/18 04:39:21;;;;;;;49.93;22.27;;;;;;;-4.18;49.94;98588.78;5071886;28;20185;-71
2022/12/18 04:41:47;;;;;;;44.00;21.70;;;;;;;-4.15;50.67;98586.19;5072933;28;20632;-72
2022/12/18 04:44:12;;;;;;;43.57;21.17;;;;;;;-4.28;50.68;98577.84;5067855;28;20209;-72
2022/12/18 04:46:38;;;;;;;50.63;22.10;;;;;;;-4.17;50.50;98583.66;5072598;28;20184;-72
2022/12/18 04:49:03;;;;;;;40.70;20.97;;;;;;;-4.38;49.98;98581.44;5069323;28;20206;-70
2022/12/18 04:51:29;;;;;;;47.90;20.30;;;;;;;-4.40;50.24;98571.25;5072062;28;20188;-71
2022/12/18 04:53:54;;;;;;;46.27;22.77;;;;;;;-4.57;50.13;98568.97;5071716;28;20284;-71
2022/12/18 04:56:19;;;;;;;49.50;22.73;;;;;;;-4.43;50.30;98565.34;5061591;28;20190;-75
2022/12/18 04:58:45;;;;;;;47.33;23.43;;;;;;;-4.51;49.75;98556.03;5070635;28;20198;-71
2022/12/18 05:01:12;;;;;;;45.27;22.37;;;;;;;-4.59;50.15;98550.22;5071634;28;20708;-72
2022/12/18 05:03:37;;;;;;;52.60;23.67;;;;;;;-4.60;49.98;98545.97;5068840;28;20273;-71
2022/12/18 05:06:03;;;;;;;46.63;23.37;;;;;;;-4.83;50.53;98554.84;5072375;28;20995;-72
2022/12/18 05:08:29;;;;;;;51.90;23.70;;;;;;;-4.97;50.82;98551.66;5067388;28;20296;-70
2022/12/18 05:10:59;;;;;;;50.83;23.00;;;;;;;-4.94;50.63;98554.19;5058359;28;20431;-71
2022/12/18 05:13:25;;;;;;;51.40;23.80;;;;;;;-4.80;50.23;98562.50;5071557;28;20273;-70
2022/12/18 05:15:52;;;;;;;42.93;21.67;;;;;;;-4.78;50.67;98553.06;5068929;28;20829;-72
2022/12/18 05:18:17;;;;;;;50.73;21.93;;;;;;;-4.68;49.59;98565.72;5059208;28;20202;-73
2022/12/18 05:20:43;;;;;;;45.53;22.33;;;;;;;-4.78;49.66;98565.00;5070886;28;20428;-71
2022/12/18 05:23:08;;;;;;;48.80;24.10;;;;;;;-4.87;50.36;98571.13;5069520;28;20238;-71
2022/12/18 05:25:33;;;;;;;43.77;22.20;;;;;;;-4.81;50.31;98570.16;5065655;28;20266;-73
2022/12/18 05:27:59;;;;;;;51.90;23.67;;;;;;;-4.70;49.83;98575.97;5067303;28;20730;-71
2022/12/18 05:30:24;;;;;;;51.87;23.70;;;;;;;-4.64;49.52;98578.44;5070680;28;20627;-71
2022/12/18 05:32:50;;;;;;;51.33;23.40;;;;;;;-4.60;49.42;98584.34;5057380;28;20201;-71
2022/12/18 05:35:15;;;;;;;57.83;23.10;;;;;;;-4.59;49.79;98582.63;5064209;28;20204;-72
2022/12/18 05:37:41;;;;;;;46.73;22.60;;;;;;;-4.52;49.14;98592.75;5069991;28;20288;-72
2022/12/18 05:40:07;;;;;;;47.53;22.60;;;;;;;-4.55;49.00;98585.13;5067345;28;20280;-73
2022/12/18 05:42:32;;;;;;;49.50;21.30;;;;;;;-4.66;48.84;98584.44;5064466;28;20301;-72
2022/12/18 05:44:57;;;;;;;50.20;22.13;;;;;;;-4.79;49.33;98584.63;5070037;28;20506;-70
2022/12/18 05:47:23;;;;;;;45.27;21.93;;;;;;;-4.79;49.56;98587.19;5059987;28;20304;-70
2022/12/18 05:49:48;;;;;;;47.20;22.70;;;;;;;-4.88;49.24;98595.00;5071852;28;20276;-70
2022/12/18 05:52:14;;;;;;;45.10;22.00;;;;;;;-5.07;49.60;98583.34;5069816;28;20185;-71
2022/12/18 05:54:40;;;;;;;55.43;24.77;;;;;;;-5.39;49.88;98585.47;5070861;28;20185;-71
2022/12/18 05:57:05;;;;;;;62.47;26.80;;;;;;;-5.18;49.10;98579.22;5050952;28;20677;-73
2022/12/18 05:59:30;;;;;;;54.13;27.10;;;;;;;-4.98;48.65;98578.09;5069147;28;20308;-72
2022/12/18 06:01:56;;;;;;;47.30;25.47;;;;;;;-4.93;48.99;98576.34;5065844;28;20309;-69
2022/12/18 06:04:23;;;;;;;49.70;23.30;;;;;;;-4.81;48.71;98581.28;5061679;28;20180;-70
2022/12/18 06:06:48;;;;;;;45.90;21.60;;;;;;;-4.77;49.06;98582.06;5071090;28;20579;-69
2022/12/18 06:09:13;;;;;;;51.33;23.37;;;;;;;-4.75;49.55;98590.56;5060572;28;20480;-74
2022/12/18 06:11:39;;;;;;;43.63;21.97;;;;;;;-4.72;49.33;98587.94;5071031;28;20171;-71
2022/12/18 06:14:05;;;;;;;51.37;23.43;;;;;;;-5.09;48.93;98599.56;5062378;28;20672;-71
2022/12/18 06:16:31;;;;;;;53.10;23.60;;;;;;;-5.17;48.91;98598.81;5058441;28;20188;-71
2022/12/18 06:19:01;;;;;;;44.47;22.47;;;;;;;-5.07;47.96;98593.59;5066476;28;20448;-71
2022/12/18 06:21:28;;;;;;;42.03;19.93;;;;;;;-5.16;48.36;98599.66;5058635;28;20519;-73
2022/12/18 06:23:53;;;;;;;52.73;22.40;;;;;;;-5.13;48.51;98600.47;5065265;28;20455;-73
2022/12/18 06:26:19;;;;;;;46.60;22.30;;;;;;;-4.99;48.46;98612.22;5046581;28;21018;-72
2022/12/18 06:28:44;;;;;;;41.33;20.47;;;;;;;-5.07;48.42;98608.94;5055765;28;20223;-72
2022/12/18 06:31:10;;;;;;;47.43;22.40;;;;;;;-5.05;48.10;98608.03;5053316;28;20186;-72
2022/12/18 06:33:36;;;;;;;49.93;22.40;;;;;;;-4.97;48.56;98610.47;5054102;28;20192;-74
2022/12/18 06:36:12;;;;;;;43.73;21.13;;;;;;;-4.98;48.66;98616.47;5060092;28;20267;-73
2022/12/18 06:38:40;;;;;;;53.30;21.80;;;;;;;-5.02;48.69;98609.69;5048516;28;20213;-74
2022/12/18 06:41:07;;;;;;;51.30;23.53;;;;;;;-5.08;48.56;98608.06;5059769;28;20433;-72
2022/12/18 06:43:33;;;;;;;44.00;21.43;;;;;;;-5.35;49.64;98611.84;5050544;28;20432;-71
2022/12/18 06:46:03;;;;;;;45.30;20.80;;;;;;;-5.27;49.71;98607.47;5059329;28;20465;-74
2022/12/18 06:48:28;;;;;;;45.63;20.90;;;;;;;-5.21;49.12;98622.72;5057478;28;20302;-72
2022/12/18 06:50:54;;;;;;;51.37;23.40;;;;;;;-5.30;49.35;98617.75;5057461;28;20417;-72
2022/12/18 06:53:19;;;;;;;47.83;24.03;;;;;;;-5.56;49.45;98611.22;5058463;28;20192;-72
2022/12/18 06:55:45;;;;;;;50.13;21.37;;;;;;;-5.37;48.68;98611.84;5054241;28;20181;-73
2022/12/18 06:58:10;;;;;;;49.10;21.80;;;;;;;-5.31;49.33;98621.16;5060392;28;20336;-70
2022/12/18 07:00:36;;;;;;;47.73;21.83;;;;;;;-5.23;49.26;98614.22;5049157;28;20224;-72
2022/12/18 07:03:01;;;;;;;42.47;20.37;;;;;;;-5.23;49.54;98613.41;5052348;28;20267;-72
2022/12/18 07:05:27;;;;;;;49.77;21.77;;;;;;;-5.31;48.97;98631.38;5050857;28;20194;-71
2022/12/18 07:07:52;;;;;;;45.33;19.90;;;;;;;-5.31;49.57;98637.34;5029221;28;20212;-72
2022/12/18 07:10:18;;;;;;;41.67;21.87;;;;;;;-5.38;50.35;98638.28;5061296;28;20192;-73
2022/12/18 07:12:43;;;;;;;51.57;21.80;;;;;;;-5.38;50.11;98640.84;5030801;28;20178;-71
2022/12/18 07:15:09;;;;;;;42.87;20.90;;;;;;;-5.21;50.24;98643.19;5054675;28;20212;-72
2022/12/18 07:17:35;;;;;;;46.50;20.93;;;;;;;-5.11;50.00;98641.38;5048379;28;20214;-70
2022/12/18 07:20:01;;;;;;;50.87;23.67;;;;;;;-5.35;49.10;98645.06;5051716;28;20436;-72
2022/12/18 07:22:26;;;;;;;45.60;21.40;;;;;;;-5.29;48.78;98638.16;5054318;28;20261;-70
2022/12/18 07:24:51;;;;;;;48.47;20.97;;;;;;;-5.21;48.95;98645.75;5057584;28;20541;-73
2022/12/18 07:27:17;;;;;;;48.77;22.77;;;;;;;-5.18;49.32;98648.28;5054568;28;20191;-73
2022/12/18 07:29:42;;;;;;;43.17;20.10;;;;;;;-5.25;48.98;98642.38;5050119;28;20225;-70
2022/12/18 07:32:08;;;;;;;43.33;21.40;;;;;;;-5.23;48.06;98644.91;5050154;28;20208;-71
2022/12/18 07:34:34;;;;;;;50.73;21.70;;;;;;;-5.12;47.86;98649.91;5058983;28;20184;-75
2022/12/18 07:36:59;;;;;;;51.07;22.47;;;;;;;-5.05;48.44;98648.94;5054141;28;20562;-72
2022/12/18 07:39:24;;;;;;;49.77;21.40;;;;;;;-4.99;48.54;98645.47;5062150;28;20194;-72
2022/12/18 07:42:30;;;;;;;54.53;23.47;;;;;;;-5.04;48.46;98650.63;5052824;28;20292;-72
2022/12/18 07:44:44;;;;;;;56.50;24.87;;;;;;;-5.06;47.87;98642.13;5057277;28;20626;-70
2022/12/18 07:47:10;;;;;;;54.97;24.67;;;;;;;-5.05;47.71;98651.50;5053207;28;20439;-73
2022/12/18 07:49:36;;;;;;;253.00;83.90;;;;;;;-5.10;47.69;98655.81;5058274;28;20246;-72
2022/12/18 07:52:01;;;;;;;220.93;80.10;;;;;;;-5.14;48.12;98661.84;5065460;28;20660;-72
2022/12/18 07:54:27;;;;;;;115.40;46.47;;;;;;;-5.18;47.96;98653.38;5055112;28;20435;-71
2022/12/18 07:56:52;;;;;;;259.37;86.80;;;;;;;-5.35;48.28;98665.50;5057393;28;20219;-71
2022/12/18 07:59:18;;;;;;;265.03;82.23;;;;;;;-5.28;47.76;98654.34;5058667;28;20232;-73
2022/12/18 08:01:43;;;;;;;122.30;46.53;;;;;;;-5.28;48.36;98660.31;5066898;28;20219;-72
2022/12/18 08:04:09;;;;;;;75.10;32.87;;;;;;;-5.07;48.24;98658.34;5063941;28;20211;-74
2022/12/18 08:06:34;;;;;;;57.40;24.93;;;;;;;-4.51;47.58;98658.44;5064227;28;20198;-72
2022/12/18 08:09:00;;;;;;;97.40;37.90;;;;;;;-4.03;47.10;98650.00;5074469;28;20232;-72
2022/12/18 08:11:27;;;;;;;101.80;40.43;;;;;;;-3.60;46.19;98647.56;5057715;28;20177;-72
2022/12/18 08:13:53;;;;;;;67.03;31.10;;;;;;;-3.17;45.67;98653.56;5054415;28;20276;-73
2022/12/18 08:16:18;;;;;;;58.57;27.43;;;;;;;-2.77;44.89;98652.72;5050125;28;20553;-72
2022/12/18 08:18:44;;;;;;;60.40;28.47;;;;;;;-2.45;44.29;98643.47;5049985;28;20441;-72
2022/12/18 08:21:22;;;;;;;48.50;24.23;;;;;;;-2.27;43.95;98646.47;5054655;28;20182;-71
2022/12/18 08:23:48;;;;;;;46.57;23.53;;;;;;;-2.13;43.32;98644.41;5061738;28;20747;-71
2022/12/18 08:26:14;;;;;;;59.97;24.70;;;;;;;-1.83;43.70;98647.09;5065360;28;20433;-71
2022/12/18 08:28:40;;;;;;;55.00;28.20;;;;;;;-1.44;42.83;98644.34;5061509;28;20476;-73
2022/12/18 08:31:06;;;;;;;56.80;25.90;;;;;;;-1.20;42.31;98646.28;5056728;28;20190;-74
2022/12/18 08:33:32;;;;;;;61.30;27.50;;;;;;;-0.89;42.77;98643.69;5045249;28;20998;-72
2022/12/18 08:36:01;;;;;;;56.43;26.83;;;;;;;-0.52;42.44;98642.56;5067555;28;20434;-71
2022/12/18 08:38:27;;;;;;;45.53;22.47;;;;;;;-0.47;43.17;98632.94;5061383;28;20451;-74
2022/12/18 08:41:00;;;;;;;47.90;23.70;;;;;;;-0.40;43.86;98632.75;5055590;28;21546;-72
2022/12/18 08:46:09;;;;;;;47.00;22.90;;;;;;;-0.48;44.76;98640.72;5054699;28;20435;-72
2022/12/18 08:48:35;;;;;;;41.53;22.10;;;;;;;-0.48;45.08;98648.47;5053580;28;20441;-74
2022/12/18 08:51:01;;;;;;;44.97;22.30;;;;;;;-0.42;45.52;98650.00;5055415;28;20189;-71
2022/12/18 08:53:27;;;;;;;45.07;21.73;;;;;;;-0.69;45.94;98652.53;5060410;28;20440;-72
2022/12/18 08:55:53;;;;;;;46.63;22.67;;;;;;;-0.33;45.72;98637.69;5057514;28;20293;-71
2022/12/18 08:58:18;;;;;;;47.57;25.03;;;;;;;-0.26;44.97;98640.03;5060760;28;20534;-74
2022/12/18 09:00:44;;;;;;;42.33;22.50;;;;;;;-0.31;45.84;98630.72;5036923;28;20412;-74
2022/12/18 09:03:14;;;;;;;49.63;27.83;;;;;;;-0.18;45.56;98633.75;5058046;28;20499;-72
2022/12/18 09:05:39;;;;;;;49.27;26.60;;;;;;;0.05;45.08;98627.00;5055059;28;20179;-72
2022/12/18 09:08:05;;;;;;;42.40;21.30;;;;;;;0.31;44.48;98627.84;5058684;28;20444;-78
2022/12/18 09:10:31;;;;;;;47.87;23.50;;;;;;;0.53;45.65;98624.50;5056022;28;20230;-74
2022/12/18 09:12:57;;;;;;;43.40;22.10;;;;;;;0.59;45.57;98630.28;5041924;28;20421;-71
2022/12/18 09:15:22;;;;;;;44.80;23.10;;;;;;;0.57;45.91;98623.50;5063371;28;20522;-71
2022/12/18 09:17:49;;;;;;;43.93;21.93;;;;;;;0.60;45.60;98625.97;5057175;28;20647;-70
2022/12/18 09:20:15;;;;;;;42.27;21.53;;;;;;;0.92;45.50;98623.94;5082355;28;20205;-70
2022/12/18 09:22:41;;;;;;;44.20;23.03;;;;;;;1.14;45.39;98616.25;5057831;28;20466;-72
2022/12/18 09:25:09;;;;;;;44.83;23.17;;;;;;;1.32;45.06;98608.69;5052894;28;20761;-72
2022/12/18 09:27:35;;;;;;;43.97;22.37;;;;;;;1.61;44.58;98604.09;5055554;28;20286;-72
2022/12/18 09:30:01;;;;;;;46.13;23.63;;;;;;;1.96;44.11;98600.06;5050736;28;20426;-73
2022/12/18 09:32:26;;;;;;;43.10;22.27;;;;;;;1.69;43.71;98605.47;5020409;28;20208;-75
2022/12/18 09:34:52;;;;;;;44.97;23.77;;;;;;;1.93;43.37;98609.72;5007469;28;20190;-71
2022/12/18 09:37:17;;;;;;;41.50;23.00;;;;;;;2.17;43.79;98612.19;5043587;28;20178;-70
2022/12/18 09:39:42;;;;;;;42.67;23.50;;;;;;;2.21;43.63;98599.03;5056463;28;20293;-75
2022/12/18 09:42:22;;;;;;;41.23;23.03;;;;;;;2.52;42.81;98612.41;5021630;28;20207;-71
2022/12/18 09:44:54;;;;;;;45.50;24.30;;;;;;;2.85;42.57;98611.78;5038762;28;20225;-72
2022/12/18 09:47:28;;;;;;;45.17;23.83;;;;;;;3.16;42.96;98608.66;5057652;28;20483;-72
2022/12/18 09:50:01;;;;;;;38.30;21.30;;;;;;;3.20;42.66;98604.19;5052727;28;20429;-71
2022/12/18 09:52:30;;;;;;;43.37;21.77;;;;;;;3.57;41.67;98594.66;5054656;28;20902;-71
2022/12/18 09:55:10;;;;;;;38.27;20.87;;;;;;;3.45;41.66;98590.88;5056873;28;20792;-73
2022/12/18 09:57:39;;;;;;;37.93;21.33;;;;;;;3.22;41.32;98592.81;5057269;28;20444;-74
2022/12/18 10:00:20;;;;;;;42.03;22.70;;;;;;;3.41;41.21;98591.13;5055018;28;20460;-72
2022/12/18 10:02:47;;;;;;;47.90;23.60;;;;;;;3.50;41.44;98588.06;5054507;28;20460;-74
2022/12/18 10:05:14;;;;;;;44.77;22.53;;;;;;;3.53;41.40;98593.13;5034223;28;20431;-73
2022/12/18 10:08:01;;;;;;;42.70;23.43;;;;;;;3.54;41.46;98595.63;5053803;28;20449;-73
2022/12/18 10:10:36;;;;;;;44.70;22.83;;;;;;;3.63;42.07;98601.31;5057745;28;20446;-72
2022/12/18 10:13:20;;;;;;;48.17;25.33;;;;;;;3.99;41.61;98603.00;5055721;28;20515;-73
2022/12/18 10:15:53;;;;;;;50.07;24.70;;;;;;;4.35;41.12;98601.22;5051651;28;20409;-72
2022/12/18 10:19:02;;;;;;;47.93;24.77;;;;;;;4.45;40.71;98600.66;5055059;28;20467;-71
2022/12/18 10:21:41;;;;;;;44.47;23.30;;;;;;;4.69;40.45;98600.28;5056673;28;20504;-73
2022/12/18 10:24:16;;;;;;;46.50;26.10;;;;;;;5.11;40.03;98607.63;5048619;28;20440;-71
2022/12/18 10:26:42;;;;;;;47.37;25.43;;;;;;;5.17;39.94;98607.28;5051995;28;20421;-72
2022/12/18 10:29:15;;;;;;;50.57;25.73;;;;;;;5.33;39.66;98597.72;5059959;28;20437;-72
2022/12/18 10:31:40;;;;;;;56.40;24.97;;;;;;;5.61;39.46;98595.31;5050945;28;20176;-72
2022/12/18 10:34:10;;;;;;;53.33;25.33;;;;;;;5.73;38.94;98588.59;5056139;28;20770;-73
2022/12/18 10:36:36;;;;;;;49.63;22.73;;;;;;;6.03;38.55;98593.81;5057801;28;20585;-74
2022/12/18 10:39:19;;;;;;;39.67;21.73;;;;;;;6.17;38.15;98597.38;5054199;28;20444;-72
2022/12/18 10:41:45;;;;;;;36.57;21.33;;;;;;;6.20;38.38;98598.03;5049009;28;20195;-72
2022/12/18 10:44:15;;;;;;;39.47;21.33;;;;;;;6.08;38.18;98597.00;5053769;28;20413;-72
2022/12/18 10:46:41;;;;;;;39.10;21.33;;;;;;;5.66;38.37;98594.16;5038868;28;20316;-75
2022/12/18 10:49:19;;;;;;;39.60;21.33;;;;;;;5.43;39.07;98594.59;5052310;28;21279;-74
2022/12/18 10:51:44;;;;;;;41.33;20.73;;;;;;;5.32;39.59;98598.63;5036173;28;20179;-73
2022/12/18 10:54:16;;;;;;;41.90;21.43;;;;;;;4.92;39.47;98599.06;5060036;28;20501;-72
2022/12/18 10:56:42;;;;;;;40.27;20.73;;;;;;;4.90;40.46;98600.06;5043978;28;20209;-72
2022/12/18 10:59:10;;;;;;;39.17;20.47;;;;;;;5.05;40.39;98603.59;5058395;28;20465;-74
2022/12/18 11:01:55;;;;;;;42.70;21.70;;;;;;;4.92;39.62;98613.81;5051981;28;20195;-72
2022/12/18 11:04:22;;;;;;;38.50;20.70;;;;;;;5.23;39.93;98593.97;5056538;28;20422;-72
2022/12/18 11:06:55;;;;;;;43.50;22.40;;;;;;;5.42;39.53;98595.56;5053901;28;20452;-71
2022/12/18 11:09:26;;;;;;;40.20;20.40;;;;;;;5.41;39.69;98593.88;5057014;28;20453;-72
2022/12/18 11:11:56;;;;;;;38.80;20.77;;;;;;;5.10;40.42;98588.59;5047323;28;21164;-71
2022/12/18 11:14:24;;;;;;;40.03;21.07;;;;;;;4.80;40.59;98585.88;5054347;28;20428;-73
2022/12/18 11:16:51;;;;;;;44.20;21.37;;;;;;;5.29;40.96;98575.44;5019013;28;20418;-71
2022/12/18 11:19:28;;;;;;;41.17;21.27;;;;;;;5.51;40.10;98579.41;5054679;28;20445;-72
2022/12/18 11:21:54;;;;;;;38.30;20.33;;;;;;;5.42;40.27;98574.75;5051085;28;20959;-71
2022/12/18 11:24:33;;;;;;;40.77;22.40;;;;;;;5.59;39.64;98572.00;5060925;28;20420;-73
2022/12/18 11:27:01;;;;;;;41.20;21.40;;;;;;;5.57;39.62;98568.66;5058001;28;20182;-70
2022/12/18 11:29:32;;;;;;;43.50;21.30;;;;;;;5.63;40.23;98563.13;5056919;28;20441;-72
2022/12/18 11:32:25;;;;;;;39.83;19.77;;;;;;;5.78;39.22;98566.59;5052590;28;20792;-72
2022/12/18 11:34:55;;;;;;;39.80;20.80;;;;;;;5.94;39.31;98565.72;5051432;28;20418;-72